Time;durP1;ratioP1;P1;durP2;ratioP2;P2;SDS_P1;SDS_P2;PMS_P1;PMS_P2;Temp;Humidity;BMP_temperature;BMP_pressure;BME280_temperature;BME280_humidity;BME280_pressure;Samples;Min_cycle;Max_cycle;Signal;HPM_P1;HPM_P2
2023/10/03 00:00:24;;;;;;;11.48;3.20;;;17.80;99.90;;;;;;4872290;29;20112;-84
2023/10/03 00:02:54;;;;;;;7.47;3.22;;;17.80;99.90;;;;;;4871517;29;20037;-86
2023/10/03 00:05:22;;;;;;;8.38;3.28;;;17.80;99.90;;;;;;4853984;29;20057;-86
2023/10/03 00:07:49;;;;;;;6.03;3.38;;;17.80;99.90;;;;;;4869005;29;20115;-86
2023/10/03 00:10:14;;;;;;;8.95;3.13;;;17.80;99.90;;;;;;4871887;29;20029;-84
2023/10/03 00:12:42;;;;;;;7.88;3.13;;;17.90;99.90;;;;;;4872816;29;20060;-85
2023/10/03 00:15:08;;;;;;;6.65;2.72;;;17.90;99.90;;;;;;4854316;29;20033;-88
2023/10/03 00:17:34;;;;;;;5.82;2.85;;;17.90;99.90;;;;;;4865838;29;20044;-84
2023/10/03 00:20:04;;;;;;;9.00;2.90;;;18.00;99.90;;;;;;4872898;29;20029;-85
2023/10/03 00:22:30;;;;;;;9.20;3.22;;;18.00;99.90;;;;;;4871380;29;20053;-85
2023/10/03 00:24:56;;;;;;;10.32;2.95;;;18.00;99.90;;;;;;4870846;29;20139;-84
2023/10/03 00:27:21;;;;;;;5.05;2.55;;;18.00;99.90;;;;;;4871686;29;20062;-85
2023/10/03 00:29:47;;;;;;;5.43;2.55;;;18.00;99.90;;;;;;4873992;29;20105;-84
2023/10/03 00:32:12;;;;;;;6.20;2.88;;;18.00;99.90;;;;;;4859728;29;20566;-84
2023/10/03 00:34:41;;;;;;;6.45;3.42;;;18.00;99.90;;;;;;4869757;29;20033;-83
2023/10/03 00:37:06;;;;;;;8.18;3.22;;;18.10;99.90;;;;;;4870414;29;20029;-83
2023/10/03 00:39:33;;;;;;;8.70;3.40;;;18.00;99.90;;;;;;4871167;29;20116;-86
2023/10/03 00:42:01;;;;;;;10.07;3.15;;;18.10;99.90;;;;;;4872032;29;20125;-83
2023/10/03 00:44:28;;;;;;;8.80;2.75;;;18.10;99.90;;;;;;4871916;29;20032;-84
2023/10/03 00:46:54;;;;;;;8.43;2.65;;;18.10;99.90;;;;;;4869651;29;20096;-84
2023/10/03 00:49:19;;;;;;;11.70;3.20;;;18.10;99.90;;;;;;4872216;29;20495;-84
2023/10/03 00:51:46;;;;;;;10.13;3.17;;;18.10;99.90;;;;;;4869468;29;20083;-84
2023/10/03 00:54:12;;;;;;;9.30;3.20;;;18.10;99.90;;;;;;4870678;29;20631;-86
2023/10/03 00:56:37;;;;;;;6.78;2.78;;;18.00;99.90;;;;;;4868328;29;20127;-84
2023/10/03 00:59:03;;;;;;;7.63;2.90;;;17.90;99.90;;;;;;4871439;29;20055;-83
2023/10/03 01:01:33;;;;;;;5.22;2.25;;;17.90;99.90;;;;;;4871337;29;20040;-84
2023/10/03 01:04:01;;;;;;;3.83;2.05;;;17.90;99.90;;;;;;4869073;29;20033;-84
2023/10/03 01:06:27;;;;;;;5.13;2.45;;;17.80;99.90;;;;;;4869233;29;20041;-84
2023/10/03 01:08:54;;;;;;;5.70;2.20;;;17.80;99.90;;;;;;4871687;29;20037;-84
2023/10/03 01:11:24;;;;;;;5.53;2.13;;;17.80;99.90;;;;;;4870520;29;20044;-84
2023/10/03 01:13:56;;;;;;;5.80;2.10;;;17.80;99.90;;;;;;4870357;29;20036;-87
2023/10/03 01:16:33;;;;;;;7.35;2.13;;;17.70;99.90;;;;;;4870854;29;20036;-85
2023/10/03 01:19:07;;;;;;;6.15;2.30;;;17.60;99.90;;;;;;4871269;29;20034;-84
2023/10/03 01:21:32;;;;;;;7.45;2.08;;;17.50;99.90;;;;;;4864149;29;20040;-84
2023/10/03 01:24:00;;;;;;;7.47;2.13;;;17.40;99.90;;;;;;4865758;29;20574;-85
2023/10/03 01:26:26;;;;;;;6.05;2.10;;;17.30;99.90;;;;;;4870608;29;20045;-83
2023/10/03 01:28:51;;;;;;;4.97;1.98;;;17.20;99.90;;;;;;4869384;29;20052;-82
2023/10/03 01:31:17;;;;;;;5.47;1.95;;;17.10;99.90;;;;;;4870008;29;20521;-84
2023/10/03 01:33:43;;;;;;;5.35;2.05;;;17.00;99.90;;;;;;4870508;29;20048;-85
2023/10/03 01:36:09;;;;;;;6.70;2.33;;;17.00;99.90;;;;;;4870356;29;20064;-84
2023/10/03 01:38:34;;;;;;;4.63;2.30;;;17.00;99.90;;;;;;4871663;29;20140;-84
2023/10/03 01:41:00;;;;;;;4.70;2.10;;;17.00;99.90;;;;;;4869781;29;20041;-85
2023/10/03 01:43:27;;;;;;;5.50;2.30;;;17.00;99.90;;;;;;4882061;29;20037;-83
2023/10/03 01:45:55;;;;;;;6.13;2.20;;;17.10;99.90;;;;;;4882786;29;20131;-85
2023/10/03 01:48:20;;;;;;;5.20;2.50;;;17.10;99.90;;;;;;4870467;29;20111;-84
2023/10/03 01:50:50;;;;;;;7.88;2.28;;;17.20;99.90;;;;;;4868225;29;20082;-84
2023/10/03 01:53:16;;;;;;;7.47;2.35;;;17.20;99.90;;;;;;4871010;29;20039;-84
2023/10/03 01:55:42;;;;;;;7.13;2.47;;;17.30;99.90;;;;;;4865494;29;20040;-83
2023/10/03 01:58:08;;;;;;;5.85;2.53;;;17.40;99.90;;;;;;4867773;29;20033;-83
2023/10/03 02:00:36;;;;;;;8.43;2.40;;;17.30;99.90;;;;;;4870208;29;20108;-86
2023/10/03 02:03:04;;;;;;;5.45;2.60;;;17.40;99.90;;;;;;4868316;29;20036;-84
2023/10/03 02:05:33;;;;;;;4.20;2.10;;;17.30;99.90;;;;;;4869718;29;20124;-83
2023/10/03 02:08:04;;;;;;;4.78;1.80;;;17.30;99.90;;;;;;4870879;29;20029;-84
2023/10/03 02:10:30;;;;;;;3.25;1.52;;;17.30;99.90;;;;;;4869034;29;20144;-84
2023/10/03 02:12:56;;;;;;;3.13;1.25;;;17.20;99.90;;;;;;4869014;29;20052;-85
2023/10/03 02:15:23;;;;;;;2.08;0.90;;;17.20;99.90;;;;;;4868419;29;20567;-85
2023/10/03 02:17:51;;;;;;;1.30;0.88;;;17.10;99.90;;;;;;4865157;29;20072;-84
2023/10/03 02:20:25;;;;;;;1.90;0.90;;;17.00;99.90;;;;;;4870492;29;20061;-84
2023/10/03 02:22:57;;;;;;;2.40;1.00;;;16.90;99.90;;;;;;4857640;29;20065;-85
2023/10/03 02:25:30;;;;;;;2.63;1.00;;;16.80;99.90;;;;;;4869110;29;20399;-84
2023/10/03 02:27:56;;;;;;;2.08;0.68;;;16.50;99.90;;;;;;4869344;29;20041;-85
2023/10/03 02:30:25;;;;;;;1.48;0.82;;;16.40;99.90;;;;;;4870989;29;20891;-86
2023/10/03 02:32:52;;;;;;;0.70;0.60;;;16.20;99.90;;;;;;4872171;29;20128;-85
2023/10/03 02:35:22;;;;;;;1.17;0.70;;;16.10;99.90;;;;;;4872272;29;20604;-83
2023/10/03 02:37:49;;;;;;;2.90;0.85;;;16.00;99.90;;;;;;4874632;29;20047;-85
2023/10/03 02:40:22;;;;;;;0.80;0.55;;;15.90;99.90;;;;;;4872857;29;20148;-85
2023/10/03 02:42:54;;;;;;;1.75;0.65;;;15.80;99.90;;;;;;4888904;29;20096;-84
2023/10/03 02:45:23;;;;;;;1.25;0.70;;;15.70;99.90;;;;;;4875235;29;20029;-85
2023/10/03 02:47:56;;;;;;;1.13;0.75;;;15.50;99.90;;;;;;4873802;29;20048;-84
2023/10/03 02:50:28;;;;;;;1.55;0.90;;;15.50;99.90;;;;;;4874123;29;20124;-85
2023/10/03 02:52:59;;;;;;;1.60;0.77;;;15.40;99.90;;;;;;4873894;29;20395;-85
2023/10/03 02:55:24;;;;;;;1.10;0.75;;;15.20;99.90;;;;;;4868544;29;20037;-85
2023/10/03 02:57:50;;;;;;;2.35;0.75;;;15.10;99.90;;;;;;4856324;29;20865;-84
2023/10/03 03:00:16;;;;;;;3.28;0.77;;;15.10;99.90;;;;;;4871582;29;20084;-85
2023/10/03 03:02:46;;;;;;;2.28;0.70;;;14.90;99.90;;;;;;4874944;29;20116;-85
2023/10/03 03:05:16;;;;;;;2.50;0.88;;;14.80;99.90;;;;;;4874156;29;20103;-85
2023/10/03 03:07:46;;;;;;;2.20;0.63;;;14.80;99.90;;;;;;4873536;29;20484;-85
2023/10/03 03:10:17;;;;;;;2.78;1.10;;;14.70;99.90;;;;;;4872632;29;20088;-85
2023/10/03 03:12:44;;;;;;;1.75;0.90;;;14.70;99.90;;;;;;4873985;29;20111;-84
2023/10/03 03:15:27;;;;;;;1.60;0.75;;;14.70;99.90;;;;;;4872194;29;20141;-86
2023/10/03 03:17:53;;;;;;;1.58;0.93;;;14.60;99.90;;;;;;4873051;29;20505;-84
2023/10/03 03:20:33;;;;;;;1.50;1.00;;;14.70;99.90;;;;;;4871144;29;20026;-86
2023/10/03 03:23:00;;;;;;;2.03;1.10;;;14.60;99.90;;;;;;4872990;29;20088;-84
2023/10/03 03:25:36;;;;;;;1.08;0.80;;;14.60;99.90;;;;;;4873024;29;20099;-85
2023/10/03 03:28:02;;;;;;;4.82;1.00;;;14.60;99.90;;;;;;4872523;29;20058;-86
2023/10/03 03:32:54;;;;;;;4.40;1.10;;;14.70;99.90;;;;;;4874503;29;20036;-86
2023/10/03 03:35:22;;;;;;;3.33;1.40;;;14.70;99.90;;;;;;4871854;29;20024;-85
2023/10/03 03:37:48;;;;;;;2.20;1.20;;;14.80;99.90;;;;;;4870695;29;20720;-86
2023/10/03 03:40:29;;;;;;;1.73;0.90;;;14.80;99.90;;;;;;4872648;29;20093;-84
2023/10/03 03:42:59;;;;;;;1.83;0.88;;;14.80;99.90;;;;;;4870962;29;20033;-84
2023/10/03 03:45:26;;;;;;;2.85;1.08;;;14.80;99.90;;;;;;4872324;29;20047;-85
2023/10/03 03:47:54;;;;;;;1.10;0.80;;;14.90;99.90;;;;;;4873587;29;20033;-85
2023/10/03 03:50:22;;;;;;;1.92;0.90;;;14.80;99.90;;;;;;4871443;29;20036;-84
2023/10/03 03:52:49;;;;;;;1.98;0.98;;;14.90;99.90;;;;;;4871522;29;20045;-84
2023/10/03 03:55:17;;;;;;;2.03;1.00;;;14.90;99.90;;;;;;4866817;29;20052;-83
2023/10/03 03:57:43;;;;;;;2.13;1.30;;;14.80;99.90;;;;;;4853381;29;20037;-85
2023/10/03 04:00:14;;;;;;;5.40;1.60;;;14.90;99.90;;;;;;4870160;29;20061;-84
2023/10/03 04:02:40;;;;;;;3.38;2.00;;;14.90;99.90;;;;;;4866298;29;20025;-83
2023/10/03 04:05:07;;;;;;;2.40;1.50;;;14.80;99.90;;;;;;4863500;29;20044;-83
2023/10/03 04:07:34;;;;;;;2.75;1.77;;;14.80;99.90;;;;;;4852964;29;20033;-82
2023/10/03 04:10:00;;;;;;;2.15;1.80;;;14.80;99.90;;;;;;4853614;29;20030;-86
2023/10/03 04:12:26;;;;;;;2.08;1.80;;;14.70;99.90;;;;;;4871080;29;20484;-85
2023/10/03 04:14:52;;;;;;;2.08;1.58;;;14.70;99.90;;;;;;4873163;29;20501;-84
2023/10/03 04:17:18;;;;;;;3.15;1.83;;;14.70;99.90;;;;;;4871629;29;20044;-85
2023/10/03 04:19:45;;;;;;;3.25;1.60;;;14.70;99.90;;;;;;4869377;29;20092;-85
2023/10/03 04:22:11;;;;;;;2.53;1.80;;;14.70;99.90;;;;;;4873615;29;20396;-86
2023/10/03 04:24:37;;;;;;;2.97;1.73;;;14.70;99.90;;;;;;4872094;29;20084;-85
2023/10/03 04:27:03;;;;;;;4.05;1.83;;;14.70;99.90;;;;;;4873498;29;20390;-86
2023/10/03 04:29:29;;;;;;;4.20;1.70;;;14.70;99.90;;;;;;4872290;29;20029;-85
2023/10/03 04:31:54;;;;;;;2.00;1.52;;;14.70;99.90;;;;;;4866253;29;20049;-84
2023/10/03 04:34:20;;;;;;;3.45;1.52;;;14.70;99.90;;;;;;4854641;29;20116;-84
2023/10/03 04:36:47;;;;;;;2.47;1.38;;;14.60;99.90;;;;;;4861145;29;20120;-85
2023/10/03 04:39:13;;;;;;;2.38;1.63;;;14.60;99.90;;;;;;4865601;29;20116;-85
2023/10/03 04:41:44;;;;;;;2.05;1.27;;;14.60;99.90;;;;;;4858342;29;20029;-84
2023/10/03 04:44:16;;;;;;;2.90;1.80;;;14.60;99.90;;;;;;4873061;29;20048;-83
2023/10/03 04:46:44;;;;;;;2.00;1.38;;;14.60;99.90;;;;;;4873278;29;20040;-84
2023/10/03 04:49:10;;;;;;;2.10;1.50;;;14.50;99.90;;;;;;4869727;29;20039;-83
2023/10/03 04:51:35;;;;;;;2.33;1.38;;;14.50;99.90;;;;;;4871578;29;20037;-85
2023/10/03 04:54:01;;;;;;;2.08;1.35;;;14.50;99.90;;;;;;4873515;29;20195;-86
2023/10/03 04:56:26;;;;;;;3.40;1.40;;;14.60;99.90;;;;;;4872864;29;20041;-84
2023/10/03 04:58:52;;;;;;;2.42;1.50;;;14.60;99.90;;;;;;4872086;29;20029;-85
2023/10/03 05:01:18;;;;;;;2.22;1.30;;;14.50;99.90;;;;;;4873979;29;20040;-85
2023/10/03 05:03:43;;;;;;;4.13;1.60;;;14.60;99.90;;;;;;4871913;29;20037;-85
2023/10/03 05:06:11;;;;;;;1.90;1.20;;;14.50;99.90;;;;;;4871359;29;20052;-84
2023/10/03 05:08:37;;;;;;;2.03;1.30;;;14.50;99.90;;;;;;4871015;29;20540;-85
2023/10/03 05:11:05;;;;;;;3.53;1.55;;;14.50;99.90;;;;;;4872642;29;20116;-85
2023/10/03 05:13:31;;;;;;;1.92;1.10;;;14.50;99.90;;;;;;4871537;29;20056;-86
2023/10/03 05:15:57;;;;;;;3.63;1.30;;;14.50;99.90;;;;;;4887160;29;20136;-84
2023/10/03 05:18:23;;;;;;;2.05;1.10;;;14.50;99.90;;;;;;4870883;29;20164;-84
2023/10/03 05:20:49;;;;;;;1.52;0.90;;;14.50;99.90;;;;;;4855338;29;20117;-85
2023/10/03 05:23:15;;;;;;;1.17;0.80;;;14.50;99.90;;;;;;4872750;29;20048;-85
2023/10/03 05:25:43;;;;;;;1.40;0.95;;;14.50;99.90;;;;;;4873129;29;20089;-85
2023/10/03 05:28:11;;;;;;;1.38;0.90;;;14.50;99.90;;;;;;4870971;29;20096;-84
2023/10/03 05:30:38;;;;;;;1.48;0.73;;;14.60;99.90;;;;;;4870774;29;20029;-84
2023/10/03 05:33:07;;;;;;;1.42;0.68;;;14.60;99.90;;;;;;4857532;29;20056;-84
2023/10/03 05:35:33;;;;;;;2.45;0.70;;;14.60;99.90;;;;;;4870968;29;20399;-85
2023/10/03 05:37:59;;;;;;;1.20;0.70;;;14.60;99.90;;;;;;4863210;29;20117;-85
2023/10/03 05:40:25;;;;;;;2.05;0.70;;;14.60;99.90;;;;;;4853962;29;20471;-83
2023/10/03 05:42:50;;;;;;;3.38;1.00;;;14.60;99.90;;;;;;4869827;29;20569;-84
2023/10/03 05:45:17;;;;;;;2.25;1.30;;;14.60;99.90;;;;;;4867428;29;20033;-83
2023/10/03 05:47:45;;;;;;;3.33;1.00;;;14.60;99.90;;;;;;4852906;29;20376;-83
2023/10/03 05:50:21;;;;;;;1.67;0.73;;;14.50;99.90;;;;;;4870062;29;20029;-84
2023/10/03 05:52:50;;;;;;;0.60;0.50;;;14.40;99.90;;;;;;4869680;29;20063;-85
2023/10/03 05:55:17;;;;;;;1.60;1.10;;;14.40;99.90;;;;;;4870179;29;20181;-84
2023/10/03 05:57:42;;;;;;;2.13;0.85;;;14.30;99.90;;;;;;4870335;29;20487;-84
2023/10/03 06:00:09;;;;;;;2.85;0.88;;;14.30;99.90;;;;;;4870352;29;20143;-86
2023/10/03 06:02:39;;;;;;;3.15;1.40;;;14.30;99.90;;;;;;4870929;29;20396;-86
2023/10/03 06:05:08;;;;;;;6.13;1.45;;;14.30;99.90;;;;;;4872053;29;20029;-85
2023/10/03 06:07:36;;;;;;;4.80;1.85;;;14.40;99.90;;;;;;4871882;29;20033;-85
2023/10/03 06:10:04;;;;;;;2.47;1.30;;;14.40;99.90;;;;;;4855263;29;20038;-85
2023/10/03 06:12:30;;;;;;;3.90;1.50;;;14.50;99.90;;;;;;4873987;29;20120;-84
2023/10/03 06:14:56;;;;;;;4.40;2.20;;;14.50;99.90;;;;;;4874822;29;20524;-85
2023/10/03 06:17:21;;;;;;;2.95;1.05;;;14.50;99.90;;;;;;4873175;29;20079;-83
2023/10/03 06:19:47;;;;;;;2.25;1.27;;;14.50;99.90;;;;;;4869716;29;20467;-88
2023/10/03 06:22:12;;;;;;;2.40;1.40;;;14.50;99.90;;;;;;4863994;29;20133;-86
2023/10/03 06:24:39;;;;;;;2.03;1.27;;;14.60;99.90;;;;;;4889310;29;20053;-86
2023/10/03 06:27:08;;;;;;;2.75;1.35;;;14.50;99.90;;;;;;4874783;29;20029;-85
2023/10/03 06:29:34;;;;;;;5.38;2.17;;;14.50;99.90;;;;;;4873827;29;20084;-85
2023/10/03 06:32:00;;;;;;;3.28;1.55;;;14.50;99.90;;;;;;4884615;29;20049;-86
2023/10/03 06:34:26;;;;;;;3.25;1.25;;;14.50;99.90;;;;;;4871857;29;20067;-85
2023/10/03 06:36:52;;;;;;;4.10;1.63;;;14.50;99.90;;;;;;4888915;29;20111;-85
2023/10/03 06:39:18;;;;;;;4.10;1.23;;;14.50;99.90;;;;;;4873585;29;20056;-86
2023/10/03 06:41:44;;;;;;;4.13;1.70;;;14.50;99.90;;;;;;4875081;29;20072;-85
2023/10/03 06:44:10;;;;;;;403.52;187.32;;;14.60;99.90;;;;;;4870412;29;20038;-87
2023/10/03 06:46:37;;;;;;;46.25;20.52;;;14.60;99.90;;;;;;4871395;29;20107;-85
2023/10/03 06:49:03;;;;;;;6.15;2.30;;;14.70;99.90;;;;;;4857229;29;20147;-85
2023/10/03 06:51:29;;;;;;;3.90;1.42;;;14.70;99.90;;;;;;4882693;29;20465;-87
2023/10/03 06:53:55;;;;;;;5.15;1.50;;;14.70;99.90;;;;;;4876030;29;20101;-86
2023/10/03 06:56:20;;;;;;;3.85;1.50;;;14.60;99.90;;;;;;4874142;29;20128;-85
2023/10/03 06:58:46;;;;;;;3.78;1.50;;;14.40;99.90;;;;;;4874567;29;20029;-87
2023/10/03 07:01:12;;;;;;;11.85;6.38;;;14.40;99.90;;;;;;4882138;29;20185;-85
2023/10/03 07:03:40;;;;;;;7.10;1.80;;;14.20;99.90;;;;;;4874814;29;20029;-85
2023/10/03 07:06:06;;;;;;;2.65;1.55;;;14.20;99.90;;;;;;4889475;29;20036;-86
2023/10/03 07:08:31;;;;;;;3.63;1.58;;;14.10;99.90;;;;;;4872797;29;20036;-85
2023/10/03 07:10:57;;;;;;;3.92;1.50;;;14.00;99.90;;;;;;4875067;29;20375;-88
2023/10/03 07:13:25;;;;;;;3.97;1.67;;;14.00;99.90;;;;;;4871875;29;20041;-86
2023/10/03 07:15:51;;;;;;;4.75;1.35;;;13.90;99.90;;;;;;4897559;29;20047;-86
2023/10/03 07:18:17;;;;;;;5.80;1.35;;;13.90;99.90;;;;;;4872573;29;20426;-86
2023/10/03 07:20:43;;;;;;;5.38;1.80;;;13.80;99.90;;;;;;4875406;29;20034;-88
2023/10/03 07:23:09;;;;;;;4.07;1.42;;;13.90;99.90;;;;;;4883175;23;20063;-76
2023/10/03 07:25:34;;;;;;;2.28;1.40;;;14.00;99.90;;;;;;4875168;29;20032;-74
2023/10/03 07:28:00;;;;;;;3.25;1.70;;;14.10;99.90;;;;;;4876158;29;20168;-75
2023/10/03 07:30:26;;;;;;;4.28;1.50;;;14.20;99.90;;;;;;4874180;29;20163;-74
2023/10/03 07:32:52;;;;;;;2.80;1.40;;;14.30;99.90;;;;;;4877421;29;20178;-76
2023/10/03 07:35:19;;;;;;;2.85;1.38;;;14.50;99.90;;;;;;4878493;29;20028;-78
2023/10/03 07:37:45;;;;;;;2.28;1.27;;;14.70;99.90;;;;;;4872513;29;20079;-75
2023/10/03 07:40:11;;;;;;;3.80;1.27;;;14.90;99.90;;;;;;4879629;29;20128;-75
2023/10/03 07:42:40;;;;;;;2.75;1.08;;;15.20;99.90;;;;;;4879644;23;20192;-75
2023/10/03 07:45:07;;;;;;;4.85;1.35;;;15.40;99.90;;;;;;4865827;29;20510;-75
2023/10/03 07:47:33;;;;;;;2.58;1.40;;;15.60;99.90;;;;;;4861172;29;20514;-75
2023/10/03 07:50:02;;;;;;;4.00;1.60;;;15.50;99.90;;;;;;4861964;29;20225;-74
2023/10/03 07:52:28;;;;;;;3.90;1.30;;;15.70;99.90;;;;;;4863902;29;20132;-75
2023/10/03 07:54:56;;;;;;;4.53;1.40;;;17.00;99.90;;;;;;4861446;29;20518;-75
2023/10/03 07:57:23;;;;;;;6.28;1.52;;;19.30;99.90;;;;;;4861987;29;20093;-75
2023/10/03 07:59:50;;;;;;;4.00;1.10;;;21.20;99.90;;;;;;4862721;29;20072;-76
2023/10/03 08:02:16;;;;;;;2.70;1.20;;;23.20;99.90;;;;;;4862535;29;20033;-73
2023/10/03 08:04:43;;;;;;;2.78;1.20;;;25.10;99.80;;;;;;4863890;29;20120;-78
2023/10/03 08:07:14;;;;;;;3.45;1.10;;;26.80;94.20;;;;;;4866040;29;20120;-74
2023/10/03 08:09:46;;;;;;;3.35;1.20;;;28.00;89.50;;;;;;4861582;29;20020;-74
2023/10/03 08:12:12;;;;;;;2.72;1.17;;;29.10;78.50;;;;;;4867889;29;20040;-74
2023/10/03 08:14:39;;;;;;;2.20;1.20;;;30.10;73.10;;;;;;4864075;29;20041;-74
2023/10/03 08:17:05;;;;;;;2.72;1.20;;;30.80;68.70;;;;;;4874405;29;20036;-74
2023/10/03 08:19:31;;;;;;;2.75;1.17;;;31.40;63.40;;;;;;4864111;29;20177;-75
2023/10/03 08:21:58;;;;;;;2.60;1.23;;;31.50;60.10;;;;;;4858872;29;20037;-77
2023/10/03 08:24:25;;;;;;;2.15;1.10;;;32.00;59.40;;;;;;4864061;29;20033;-75
2023/10/03 08:26:58;;;;;;;3.80;1.08;;;32.20;57.00;;;;;;4865598;29;20028;-78
2023/10/03 08:29:25;;;;;;;2.35;1.30;;;32.90;55.10;;;;;;4859880;29;20065;-75
2023/10/03 08:31:57;;;;;;;5.68;1.60;;;33.20;52.60;;;;;;4859907;29;20073;-78
2023/10/03 08:34:24;;;;;;;2.65;1.40;;;33.10;51.50;;;;;;4862411;29;20378;-74
2023/10/03 08:36:54;;;;;;;1.52;0.90;;;33.10;51.50;;;;;;4859219;29;20440;-81
2023/10/03 08:39:22;;;;;;;3.38;1.10;;;32.90;52.20;;;;;;4864205;29;20080;-76
2023/10/03 08:42:14;;;;;;;4.10;1.50;;;33.20;53.20;;;;;;4864612;29;20048;-74
2023/10/03 08:44:51;;;;;;;3.40;1.25;;;33.80;50.50;;;;;;4863717;29;20109;-75
2023/10/03 08:47:19;;;;;;;3.50;1.38;;;34.50;48.40;;;;;;4863691;29;20432;-73
2023/10/03 08:49:48;;;;;;;2.55;1.27;;;34.70;48.50;;;;;;4866002;29;20663;-73
2023/10/03 08:52:14;;;;;;;3.65;1.40;;;34.80;47.00;;;;;;4857887;29;20062;-80
2023/10/03 08:54:42;;;;;;;3.03;1.20;;;34.90;46.60;;;;;;4863861;29;20040;-81
2023/10/03 08:57:10;;;;;;;5.07;1.27;;;35.00;46.70;;;;;;4863914;29;20451;-82
2023/10/03 08:59:40;;;;;;;2.10;1.17;;;35.40;46.20;;;;;;4847079;29;20495;-81
2023/10/03 09:02:11;;;;;;;2.83;1.52;;;35.70;45.80;;;;;;4860909;29;20509;-82
2023/10/03 09:04:38;;;;;;;3.42;1.45;;;35.30;44.80;;;;;;4859938;29;20025;-82
2023/10/03 09:07:09;;;;;;;4.88;1.65;;;35.80;43.50;;;;;;4858733;29;20052;-82
2023/10/03 09:09:41;;;;;;;;;;;35.00;43.00;;;;;;4900570;23;20380;-86
2023/10/03 09:12:08;;;;;;;2.15;1.48;;;33.00;45.20;;;;;;4880856;29;19927;-85
2023/10/03 09:14:36;;;;;;;4.00;1.60;;;32.20;45.90;;;;;;4881261;29;20090;-84
2023/10/03 09:17:03;;;;;;;2.42;1.25;;;32.60;47.80;;;;;;4879885;29;20033;-85
2023/10/03 09:19:45;;;;;;;3.60;1.55;;;33.50;45.90;;;;;;4878409;29;20039;-86
2023/10/03 09:22:15;;;;;;;4.28;1.50;;;34.10;45.30;;;;;;4878921;29;20081;-85
2023/10/03 09:24:44;;;;;;;3.75;1.60;;;34.40;44.80;;;;;;4884980;29;21957;-85
2023/10/03 09:27:17;;;;;;;3.38;1.60;;;34.90;45.10;;;;;;4879322;29;20063;-86
2023/10/03 09:29:45;;;;;;;3.20;1.52;;;35.70;43.30;;;;;;4885236;29;20025;-85
2023/10/03 09:32:15;;;;;;;3.10;1.55;;;35.90;41.40;;;;;;4538323;29;9999888;-85
2023/10/03 09:34:47;;;;;;;3.28;1.50;;;35.20;43.20;;;;;;4881173;29;20084;-85
2023/10/03 09:37:13;;;;;;;2.78;1.27;;;34.80;42.00;;;;;;4879961;29;20035;-85
2023/10/03 09:39:40;;;;;;;5.60;1.42;;;35.20;44.00;;;;;;4878906;29;20107;-85
2023/10/03 09:42:15;;;;;;;3.40;1.60;;;35.60;42.00;;;;;;4877014;29;20029;-83
2023/10/03 09:44:48;;;;;;;3.53;1.48;;;36.60;41.90;;;;;;4872395;29;20064;-84
2023/10/03 09:47:18;;;;;;;2.78;1.80;;;37.80;42.70;;;;;;4870056;29;20100;-83
2023/10/03 09:49:48;;;;;;;3.50;1.52;;;37.40;40.60;;;;;;4877736;29;20119;-83
2023/10/03 09:52:22;;;;;;;3.30;1.77;;;35.90;40.90;;;;;;4880215;29;20047;-84
2023/10/03 09:54:53;;;;;;;3.13;1.83;;;35.60;42.40;;;;;;4876541;29;20443;-85
2023/10/03 09:57:29;;;;;;;4.13;1.80;;;36.20;44.20;;;;;;4883645;29;20036;-84
2023/10/03 09:59:56;;;;;;;5.18;1.63;;;35.70;41.30;;;;;;4871523;29;20472;-85
2023/10/03 10:02:37;;;;;;;2.92;1.40;;;34.00;42.90;;;;;;4884120;29;20029;-86
2023/10/03 10:05:19;;;;;;;4.63;1.80;;;31.40;44.90;;;;;;4869141;29;20421;-87
2023/10/03 10:08:08;;;;;;;4.57;1.88;;;29.40;48.10;;;;;;4883599;29;20040;-85
2023/10/03 10:10:35;;;;;;;4.18;1.88;;;27.50;52.90;;;;;;4876102;29;20479;-83
2023/10/03 10:13:20;;;;;;;6.00;1.95;;;26.40;53.60;;;;;;4865963;29;20077;-83
2023/10/03 10:16:03;;;;;;;5.43;2.00;;;25.60;56.30;;;;;;4877560;29;20037;-83
2023/10/03 10:18:44;;;;;;;5.75;1.90;;;24.50;58.00;;;;;;4878984;29;20136;-84
2023/10/03 10:21:31;;;;;;;4.07;1.63;;;24.00;61.90;;;;;;4879309;29;20036;-83
2023/10/03 10:24:24;;;;;;;4.97;1.98;;;23.80;64.80;;;;;;4876398;29;20097;-83
2023/10/03 10:26:52;;;;;;;4.88;1.88;;;23.70;65.90;;;;;;4881620;29;20036;-83
2023/10/03 10:29:25;;;;;;;3.83;1.75;;;24.10;67.60;;;;;;4873792;29;20036;-84
2023/10/03 10:31:58;;;;;;;5.53;1.92;;;24.90;66.70;;;;;;4878270;29;20491;-87
2023/10/03 10:34:27;;;;;;;3.05;1.48;;;26.00;61.70;;;;;;4873326;29;20072;-84
2023/10/03 10:37:02;;;;;;;4.38;1.70;;;26.70;58.30;;;;;;4876576;29;20144;-84
2023/10/03 10:40:04;;;;;;;3.83;1.58;;;28.20;58.50;;;;;;4880521;29;20080;-83
2023/10/03 10:42:31;;;;;;;4.50;1.73;;;29.90;54.70;;;;;;4872797;29;20044;-85
2023/10/03 10:45:15;;;;;;;3.42;1.40;;;31.00;52.30;;;;;;4881284;29;20120;-85
2023/10/03 10:47:50;;;;;;;4.45;1.45;;;31.60;50.30;;;;;;4888347;29;20386;-85
2023/10/03 10:50:17;;;;;;;4.63;1.67;;;31.90;48.50;;;;;;4878777;29;20372;-83
2023/10/03 10:52:53;;;;;;;4.00;1.67;;;31.80;45.90;;;;;;4888898;29;20040;-83
2023/10/03 10:55:21;;;;;;;4.60;1.92;;;31.30;48.00;;;;;;4883352;29;20450;-82
2023/10/03 10:57:47;;;;;;;3.17;1.30;;;30.90;48.90;;;;;;4892662;29;20037;-83
2023/10/03 11:00:17;;;;;;;2.95;1.20;;;30.50;49.70;;;;;;4885248;29;20512;-83
2023/10/03 11:02:43;;;;;;;6.55;1.85;;;30.50;48.60;;;;;;4888699;29;20044;-84
2023/10/03 11:05:10;;;;;;;3.90;1.60;;;30.30;50.90;;;;;;4891693;29;20116;-82
2023/10/03 11:07:37;;;;;;;4.20;1.50;;;30.30;51.20;;;;;;4881794;29;20108;-83
2023/10/03 11:10:06;;;;;;;4.35;1.45;;;30.10;52.50;;;;;;4882108;29;20045;-83
2023/10/03 11:12:31;;;;;;;3.83;1.58;;;29.80;52.30;;;;;;4886391;29;20490;-82
2023/10/03 11:14:58;;;;;;;3.50;1.48;;;29.70;53.30;;;;;;4887483;29;20076;-83
2023/10/03 11:17:28;;;;;;;4.65;1.38;;;28.60;51.90;;;;;;4885554;29;20074;-83
2023/10/03 11:20:00;;;;;;;4.50;1.50;;;27.70;54.90;;;;;;4887548;29;20040;-85
2023/10/03 11:22:26;;;;;;;4.45;1.27;;;27.20;56.00;;;;;;4888243;29;20084;-86
2023/10/03 11:24:52;;;;;;;5.43;1.52;;;26.80;57.40;;;;;;4889199;29;20029;-86
2023/10/03 11:27:25;;;;;;;3.83;1.40;;;26.50;57.40;;;;;;4891234;29;20506;-85
2023/10/03 11:29:51;;;;;;;5.82;1.52;;;26.20;56.00;;;;;;4889825;29;20032;-86
2023/10/03 11:32:33;;;;;;;4.57;1.75;;;26.30;60.30;;;;;;4551325;29;10000941;-85
2023/10/03 11:35:17;;;;;;;4.70;1.35;;;26.10;59.10;;;;;;4883906;29;20232;-85
2023/10/03 11:37:44;;;;;;;4.40;1.42;;;25.60;58.70;;;;;;4882875;29;20044;-86
2023/10/03 11:40:15;;;;;;;6.50;1.25;;;25.00;60.20;;;;;;4886166;29;20530;-85
2023/10/03 11:42:49;;;;;;;6.70;1.60;;;24.70;64.70;;;;;;4886416;29;20073;-84
2023/10/03 11:45:18;;;;;;;4.68;1.40;;;24.70;64.20;;;;;;4886923;29;20042;-85
2023/10/03 11:48:02;;;;;;;3.33;1.27;;;24.30;64.90;;;;;;4875478;29;20021;-82
2023/10/03 11:50:28;;;;;;;6.32;1.40;;;24.10;63.80;;;;;;4880418;29;20443;-86
2023/10/03 11:52:56;;;;;;;5.65;1.35;;;23.60;63.60;;;;;;4873672;29;20040;-88
2023/10/03 11:55:25;;;;;;;3.28;1.45;;;23.20;69.50;;;;;;4874302;29;20033;-88
2023/10/03 11:57:51;;;;;;;6.22;1.42;;;22.50;67.00;;;;;;4879386;29;20064;-88
2023/10/03 12:00:17;;;;;;;5.18;1.60;;;22.40;74.90;;;;;;4878182;29;20075;-86
2023/10/03 12:02:47;;;;;;;3.78;1.17;;;22.00;81.90;;;;;;4872161;29;20143;-87
2023/10/03 12:05:14;;;;;;;5.75;1.35;;;21.90;81.70;;;;;;4876582;29;20037;-86
2023/10/03 12:07:40;;;;;;;3.47;1.50;;;21.90;80.80;;;;;;4880420;29;20048;-87
2023/10/03 12:10:12;;;;;;;4.00;1.88;;;21.80;83.00;;;;;;4880354;29;20049;-87
2023/10/03 12:12:38;;;;;;;4.68;1.30;;;22.20;89.40;;;;;;4875023;29;20054;-85
2023/10/03 12:15:16;;;;;;;4.50;1.30;;;23.10;89.00;;;;;;4878937;29;20443;-87
2023/10/03 12:17:47;;;;;;;4.10;1.45;;;23.50;88.40;;;;;;4876603;29;20068;-86
2023/10/03 12:20:14;;;;;;;4.75;1.48;;;24.10;85.00;;;;;;4886839;29;20103;-86
2023/10/03 12:22:44;;;;;;;2.90;1.23;;;24.70;83.40;;;;;;4881866;29;20207;-88
2023/10/03 12:25:15;;;;;;;5.65;1.35;;;25.30;73.50;;;;;;4881552;29;20371;-86
2023/10/03 12:27:42;;;;;;;3.70;1.45;;;25.60;72.20;;;;;;4880058;29;20211;-87
2023/10/03 12:30:10;;;;;;;4.07;1.60;;;24.90;67.40;;;;;;4879901;29;20083;-86
2023/10/03 12:32:41;;;;;;;5.38;1.50;;;24.30;69.00;;;;;;4882114;29;20042;-86
2023/10/03 12:35:08;;;;;;;3.25;1.25;;;23.40;72.60;;;;;;4879394;29;20388;-87
2023/10/03 12:37:35;;;;;;;5.45;1.67;;;22.70;72.60;;;;;;4879139;29;20116;-87
2023/10/03 12:40:04;;;;;;;3.25;1.05;;;22.40;76.30;;;;;;4884277;29;20032;-87
2023/10/03 12:42:31;;;;;;;4.55;1.27;;;22.80;80.00;;;;;;4883006;29;20032;-87
2023/10/03 12:45:00;;;;;;;6.20;1.65;;;23.40;79.00;;;;;;4882759;29;20097;-86
2023/10/03 12:47:27;;;;;;;6.45;0.90;;;23.70;72.20;;;;;;4883273;29;20024;-87
2023/10/03 12:49:52;;;;;;;2.63;1.23;;;23.90;75.30;;;;;;4883868;29;20139;-87
2023/10/03 12:52:18;;;;;;;2.83;0.98;;;24.00;69.90;;;;;;4885577;29;20172;-87
2023/10/03 12:54:45;;;;;;;2.80;0.88;;;24.10;74.40;;;;;;4887920;29;20294;-87